Time;durP1;ratioP1;P1;durP2;ratioP2;P2;SDS_P1;SDS_P2;PMS_P1;PMS_P2;Temp;Humidity;BMP_temperature;BMP_pressure;BME280_temperature;BME280_humidity;BME280_pressure;Samples;Min_cycle;Max_cycle;Signal;HPM_P1;HPM_P2
2021/06/02 00:00:15;;;;;;;3.80;3.10;;;25.00;35.00;;;;;;5092912;28;20105;-61
2021/06/02 00:02:54;;;;;;;3.70;2.97;;;25.00;35.00;;;;;;5092966;28;20036;-60
2021/06/02 00:05:21;;;;;;;3.90;3.03;;;25.00;35.00;;;;;;5093883;28;20055;-60
2021/06/02 00:07:49;;;;;;;3.63;3.25;;;25.00;35.00;;;;;;5094433;28;20039;-60
2021/06/02 00:10:18;;;;;;;4.57;3.15;;;24.90;35.00;;;;;;5092200;28;20020;-60
2021/06/02 00:12:44;;;;;;;3.80;3.13;;;24.90;35.00;;;;;;5094460;28;20032;-60
2021/06/02 00:15:11;;;;;;;3.45;3.03;;;24.90;35.10;;;;;;5093117;28;20404;-61
2021/06/02 00:17:37;;;;;;;3.53;2.72;;;24.90;35.10;;;;;;5093346;28;20042;-60
2021/06/02 00:20:05;;;;;;;3.55;2.75;;;24.90;35.10;;;;;;5093953;28;20102;-60
2021/06/02 00:22:31;;;;;;;5.88;2.80;;;24.90;35.10;;;;;;5085531;28;20398;-60
2021/06/02 00:24:57;;;;;;;3.63;2.97;;;24.90;35.10;;;;;;5094503;28;20032;-60
2021/06/02 00:27:23;;;;;;;2.97;2.65;;;24.90;35.20;;;;;;5093786;28;20451;-60
2021/06/02 00:29:51;;;;;;;2.85;2.55;;;25.00;35.20;;;;;;5087926;28;20028;-60
2021/06/02 00:32:19;;;;;;;4.10;2.78;;;24.90;35.20;;;;;;5090551;28;20114;-61
2021/06/02 00:34:47;;;;;;;3.30;2.70;;;24.90;35.30;;;;;;5091903;28;20028;-60
2021/06/02 00:37:13;;;;;;;3.58;2.85;;;24.90;35.30;;;;;;5091689;28;20070;-60
2021/06/02 00:39:41;;;;;;;3.45;2.92;;;24.90;35.30;;;;;;5088481;28;20142;-60
2021/06/02 00:42:06;;;;;;;2.60;2.40;;;24.90;35.40;;;;;;5090766;28;20240;-60
2021/06/02 00:44:32;;;;;;;2.88;2.60;;;24.90;35.40;;;;;;5093498;28;20144;-60
2021/06/02 00:46:59;;;;;;;3.58;2.75;;;24.90;35.50;;;;;;5091137;28;20422;-61
2021/06/02 00:49:26;;;;;;;3.63;2.72;;;24.90;35.60;;;;;;5095388;28;20078;-61
2021/06/02 00:51:57;;;;;;;2.97;2.60;;;24.90;35.60;;;;;;5090774;28;21714;-61
2021/06/02 00:54:24;;;;;;;3.28;2.67;;;24.90;35.70;;;;;;5092731;28;20426;-61
2021/06/02 00:57:02;;;;;;;3.20;2.60;;;24.80;35.70;;;;;;5092421;28;20032;-60
2021/06/02 00:59:44;;;;;;;3.13;2.40;;;24.90;35.90;;;;;;5091151;28;20075;-60
2021/06/02 01:02:21;;;;;;;3.38;2.40;;;24.80;35.90;;;;;;5089739;28;20128;-60
2021/06/02 01:04:49;;;;;;;3.00;2.60;;;24.80;35.90;;;;;;5090744;28;20024;-60
2021/06/02 01:07:16;;;;;;;3.45;2.67;;;24.80;36.00;;;;;;5092715;28;20368;-59
2021/06/02 01:09:50;;;;;;;3.10;2.78;;;24.80;36.00;;;;;;5092325;28;20020;-60
2021/06/02 01:12:21;;;;;;;2.75;2.30;;;24.80;36.10;;;;;;5094494;28;21636;-59
2021/06/02 01:14:48;;;;;;;2.47;2.28;;;24.80;36.20;;;;;;5092425;28;20051;-61
2021/06/02 01:17:16;;;;;;;3.08;2.45;;;24.80;36.20;;;;;;5093917;28;20058;-60
2021/06/02 01:19:43;;;;;;;2.85;2.50;;;24.80;36.30;;;;;;5094176;28;20459;-59
2021/06/02 01:22:10;;;;;;;2.75;2.25;;;24.80;36.40;;;;;;5091992;28;20108;-60
2021/06/02 01:24:36;;;;;;;2.85;2.25;;;24.80;36.40;;;;;;5094261;28;20043;-60
2021/06/02 01:27:04;;;;;;;3.05;2.25;;;24.80;36.50;;;;;;5091606;28;20028;-59
2021/06/02 01:29:31;;;;;;;2.97;2.60;;;24.80;36.60;;;;;;5092804;28;20111;-61
2021/06/02 01:32:31;;;;;;;2.50;2.08;;;24.80;36.60;;;;;;5087572;28;20502;-60
2021/06/02 01:35:24;;;;;;;3.67;3.00;;;24.80;36.70;;;;;;5091987;28;20036;-61
2021/06/02 01:37:55;;;;;;;3.05;2.47;;;24.80;36.80;;;;;;5093707;28;20051;-60
2021/06/02 01:40:30;;;;;;;2.47;2.28;;;24.70;36.80;;;;;;5079328;28;20062;-60
2021/06/02 01:42:58;;;;;;;3.22;2.47;;;24.70;36.90;;;;;;5094143;28;20038;-61
2021/06/02 01:46:12;;;;;;;2.90;2.33;;;24.70;37.00;;;;;;5088469;28;20121;-60
2021/06/02 01:49:04;;;;;;;2.35;2.08;;;24.70;37.10;;;;;;5071148;28;20046;-61
2021/06/02 01:52:05;;;;;;;2.30;2.10;;;24.70;37.20;;;;;;5069463;28;20580;-61
2021/06/02 01:54:43;;;;;;;2.80;2.13;;;24.70;37.30;;;;;;5089088;28;20050;-60
2021/06/02 01:57:24;;;;;;;2.75;2.45;;;24.70;37.40;;;;;;5092148;28;20028;-60
2021/06/02 02:00:09;;;;;;;2.80;2.38;;;24.70;37.40;;;;;;5093058;28;20031;-60
2021/06/02 02:03:16;;;;;;;2.47;2.28;;;24.70;37.50;;;;;;5091029;28;20072;-61
2021/06/02 02:06:19;;;;;;;2.40;2.20;;;24.70;37.60;;;;;;5088881;28;20032;-61
2021/06/02 02:09:09;;;;;;;2.28;2.03;;;24.70;37.60;;;;;;5089075;28;20116;-61
2021/06/02 02:11:45;;;;;;;2.35;2.00;;;24.70;37.70;;;;;;5086339;28;20078;-60
2021/06/02 02:14:29;;;;;;;2.30;2.10;;;24.60;37.70;;;;;;5085324;28;20027;-62
2021/06/02 02:17:04;;;;;;;2.45;2.25;;;24.60;37.80;;;;;;5090725;28;20363;-60
2021/06/02 02:19:57;;;;;;;2.30;2.10;;;24.60;37.80;;;;;;5085734;28;20032;-60
2021/06/02 02:22:30;;;;;;;2.30;2.10;;;24.60;37.90;;;;;;5086171;28;20044;-61
2021/06/02 02:25:04;;;;;;;2.63;2.22;;;24.60;37.90;;;;;;5090128;28;20020;-60
2021/06/02 02:27:54;;;;;;;2.53;2.28;;;24.60;37.90;;;;;;5091222;28;20419;-60
2021/06/02 02:30:31;;;;;;;2.38;2.03;;;24.60;38.00;;;;;;5092788;28;20067;-61
2021/06/02 02:33:03;;;;;;;2.38;2.10;;;24.60;38.00;;;;;;5093411;28;20024;-62
2021/06/02 02:35:33;;;;;;;2.85;2.40;;;24.60;38.10;;;;;;5091912;28;20028;-62
2021/06/02 02:38:06;;;;;;;2.60;2.33;;;24.60;38.10;;;;;;5087445;28;20343;-60
2021/06/02 02:40:50;;;;;;;2.53;2.30;;;24.60;38.80;;;;;;5092998;28;20085;-60
2021/06/02 02:43:23;;;;;;;2.20;2.00;;;24.60;38.20;;;;;;5092087;28;20036;-60
2021/06/02 02:46:10;;;;;;;3.20;2.58;;;24.60;38.20;;;;;;5087677;28;20062;-60
2021/06/02 02:48:58;;;;;;;3.35;2.10;;;24.60;38.20;;;;;;5086038;28;20111;-60
2021/06/02 02:51:42;;;;;;;2.28;2.00;;;24.60;38.30;;;;;;5092209;28;20085;-60
2021/06/02 02:54:15;;;;;;;2.30;2.10;;;24.60;38.30;;;;;;5089785;28;20031;-61
2021/06/02 02:56:51;;;;;;;2.20;1.98;;;24.60;38.40;;;;;;5084496;28;20024;-60
2021/06/02 02:59:29;;;;;;;2.33;2.05;;;24.60;38.40;;;;;;5086758;28;20040;-60
2021/06/02 03:02:08;;;;;;;2.53;2.17;;;24.60;38.40;;;;;;5088575;28;20051;-61
2021/06/02 03:04:48;;;;;;;2.88;2.28;;;24.50;38.40;;;;;;5090523;28;20548;-61
2021/06/02 03:07:15;;;;;;;2.45;2.10;;;24.50;38.40;;;;;;5088280;28;20032;-60
2021/06/02 03:10:02;;;;;;;2.50;2.17;;;24.50;38.50;;;;;;5089636;28;20515;-59
2021/06/02 03:12:55;;;;;;;2.63;2.17;;;24.50;38.40;;;;;;5090165;28;20043;-60
2021/06/02 03:16:00;;;;;;;2.20;2.00;;;24.50;38.50;;;;;;5090255;28;20323;-60
2021/06/02 03:18:31;;;;;;;2.50;2.10;;;24.60;38.60;;;;;;5062768;28;20060;-60
2021/06/02 03:21:18;;;;;;;2.25;2.05;;;24.50;38.50;;;;;;5090889;28;20097;-62
2021/06/02 03:23:52;;;;;;;3.17;2.40;;;24.50;38.60;;;;;;5089942;28;20035;-61
2021/06/02 03:26:22;;;;;;;2.40;2.00;;;24.50;38.60;;;;;;5090007;28;20042;-61
2021/06/02 03:28:57;;;;;;;2.35;2.15;;;24.50;38.60;;;;;;5089663;28;20111;-61
2021/06/02 03:31:44;;;;;;;2.83;2.13;;;24.40;38.50;;;;;;5090458;28;20355;-60
2021/06/02 03:35:08;;;;;;;1.92;1.80;;;24.50;38.60;;;;;;5087947;28;20024;-61
2021/06/02 03:37:49;;;;;;;2.15;1.95;;;24.50;38.60;;;;;;5025809;28;20033;-60
2021/06/02 03:40:50;;;;;;;3.13;1.90;;;24.40;38.60;;;;;;5083923;28;20024;-61
2021/06/02 03:43:26;;;;;;;2.15;1.83;;;24.40;38.70;;;;;;5088240;28;20035;-60
2021/06/02 03:46:19;;;;;;;2.67;1.98;;;24.40;38.70;;;;;;5089762;28;20064;-61
2021/06/02 03:48:57;;;;;;;2.72;2.30;;;24.40;38.70;;;;;;5088112;28;20039;-59
2021/06/02 03:51:40;;;;;;;1.85;1.67;;;24.40;38.80;;;;;;5090243;28;20056;-60
2021/06/02 03:54:17;;;;;;;3.13;2.22;;;24.40;38.80;;;;;;5089559;28;20032;-60
2021/06/02 03:57:02;;;;;;;2.30;2.10;;;24.40;38.80;;;;;;5087476;28;20032;-61
2021/06/02 03:59:39;;;;;;;2.42;2.22;;;24.40;38.80;;;;;;5090813;28;20088;-60
2021/06/02 04:02:38;;;;;;;2.20;2.00;;;24.40;38.90;;;;;;5092086;28;20066;-61
2021/06/02 04:05:32;;;;;;;2.75;2.30;;;24.40;38.90;;;;;;5086835;28;20035;-61
2021/06/02 04:08:24;;;;;;;2.60;1.90;;;24.40;38.90;;;;;;5089081;28;20047;-60
2021/06/02 04:11:10;;;;;;;2.40;2.08;;;24.40;39.00;;;;;;5088803;28;20449;-60
2021/06/02 04:14:09;;;;;;;2.42;2.22;;;24.40;39.00;;;;;;5090893;28;20043;-61
2021/06/02 04:16:40;;;;;;;2.22;1.88;;;24.40;39.10;;;;;;5077901;28;20230;-62
2021/06/02 04:19:27;;;;;;;2.20;2.00;;;24.40;39.10;;;;;;5089548;28;20035;-61
2021/06/02 04:22:01;;;;;;;2.17;1.95;;;24.40;39.10;;;;;;5089943;28;20031;-62
2021/06/02 04:24:30;;;;;;;2.10;1.88;;;24.40;39.20;;;;;;5087084;28;20263;-61
2021/06/02 04:26:56;;;;;;;2.17;1.98;;;24.40;39.20;;;;;;5086580;28;20470;-61
2021/06/02 04:29:24;;;;;;;2.50;2.30;;;24.40;39.30;;;;;;5090473;28;20363;-61
2021/06/02 04:32:06;;;;;;;2.63;1.98;;;24.40;39.30;;;;;;5090416;28;20032;-60
2021/06/02 04:34:33;;;;;;;2.38;1.90;;;24.40;39.30;;;;;;5087757;28;20367;-61
2021/06/02 04:37:01;;;;;;;3.03;2.00;;;24.40;39.30;;;;;;5088106;28;20032;-61
2021/06/02 04:39:29;;;;;;;2.20;2.00;;;24.40;39.30;;;;;;5086845;28;20024;-60
2021/06/02 04:41:59;;;;;;;3.17;2.33;;;24.50;39.40;;;;;;5087952;28;20390;-61
2021/06/02 04:44:27;;;;;;;2.28;2.03;;;24.50;39.40;;;;;;5090389;28;20028;-61
2021/06/02 04:46:53;;;;;;;2.08;1.88;;;24.50;39.40;;;;;;5086365;28;20039;-62
2021/06/02 04:49:22;;;;;;;3.00;1.98;;;24.50;39.50;;;;;;5091290;28;20100;-61
2021/06/02 04:52:21;;;;;;;3.35;2.40;;;24.50;39.50;;;;;;5090996;28;20040;-63
2021/06/02 04:55:24;;;;;;;2.22;1.83;;;24.50;39.50;;;;;;5086108;28;20094;-61
2021/06/02 04:58:20;;;;;;;2.58;2.20;;;24.60;39.60;;;;;;5090318;28;20445;-62
2021/06/02 05:01:11;;;;;;;2.25;2.05;;;24.50;39.60;;;;;;5090720;28;20048;-60
2021/06/02 05:04:18;;;;;;;2.10;1.90;;;24.50;39.60;;;;;;5089642;28;20189;-60
2021/06/02 05:07:08;;;;;;;1.92;1.77;;;24.50;39.70;;;;;;5088811;28;20048;-61
2021/06/02 05:10:16;;;;;;;3.08;1.90;;;24.50;39.70;;;;;;5084950;28;20016;-61
2021/06/02 05:13:05;;;;;;;2.17;1.98;;;24.50;39.70;;;;;;5080031;28;20138;-60
2021/06/02 05:15:50;;;;;;;3.05;1.98;;;24.50;39.70;;;;;;5088645;28;20180;-61
2021/06/02 05:18:52;;;;;;;3.00;2.50;;;24.50;39.70;;;;;;5091275;28;20032;-61
2021/06/02 05:24:29;;;;;;;2.67;2.15;;;24.50;39.70;;;;;;5087454;28;20048;-59
2021/06/02 05:27:36;;;;;;;2.97;2.33;;;24.50;39.70;;;;;;5091645;28;20024;-60
2021/06/02 05:30:16;;;;;;;2.58;2.15;;;24.50;39.70;;;;;;5077410;28;20067;-60
2021/06/02 05:33:16;;;;;;;2.40;2.20;;;24.50;39.70;;;;;;5088041;28;20101;-60
2021/06/02 05:36:12;;;;;;;2.58;2.38;;;24.50;39.70;;;;;;5089629;28;20115;-61
2021/06/02 05:39:09;;;;;;;2.60;2.40;;;24.50;39.70;;;;;;5089595;28;20450;-61
2021/06/02 05:41:41;;;;;;;2.45;2.22;;;24.50;39.60;;;;;;5088769;28;20040;-60
2021/06/02 05:44:44;;;;;;;2.40;1.98;;;24.60;39.70;;;;;;5092799;28;20082;-61
2021/06/02 05:47:49;;;;;;;3.20;2.30;;;24.60;39.60;;;;;;5086469;28;20039;-61
2021/06/02 05:50:33;;;;;;;3.03;2.33;;;24.60;39.60;;;;;;5091214;28;20032;-60
2021/06/02 05:53:21;;;;;;;2.28;2.08;;;24.60;39.60;;;;;;5092910;28;20332;-60
2021/06/02 05:55:49;;;;;;;2.58;2.20;;;24.60;39.60;;;;;;5075079;28;20517;-60
2021/06/02 05:58:37;;;;;;;2.30;2.10;;;24.60;39.60;;;;;;5089604;28;20353;-61
2021/06/02 06:01:11;;;;;;;2.70;2.30;;;24.60;39.60;;;;;;5089076;28;20059;-61
2021/06/02 06:04:04;;;;;;;2.42;2.20;;;24.60;39.60;;;;;;5092142;28;20088;-60
2021/06/02 06:06:40;;;;;;;3.65;2.45;;;24.60;39.50;;;;;;5094314;28;20024;-60
2021/06/02 06:09:46;;;;;;;3.25;2.30;;;24.60;39.60;;;;;;5092208;28;20043;-60
2021/06/02 06:12:15;;;;;;;2.38;2.10;;;24.60;39.50;;;;;;5094170;28;20061;-61
2021/06/02 06:14:59;;;;;;;2.60;2.38;;;24.60;39.60;;;;;;5094577;28;20024;-61
2021/06/02 06:17:46;;;;;;;2.35;2.03;;;24.60;39.60;;;;;;5091938;28;20512;-61
2021/06/02 06:20:43;;;;;;;2.30;2.10;;;24.60;39.70;;;;;;5087692;28;20036;-60
2021/06/02 06:23:34;;;;;;;2.40;2.20;;;24.60;39.70;;;;;;5069131;28;20129;-60
2021/06/02 06:26:16;;;;;;;2.63;2.42;;;24.60;40.40;;;;;;5092377;28;20024;-61
2021/06/02 06:28:50;;;;;;;3.17;2.70;;;24.50;39.80;;;;;;5094353;28;20020;-60
2021/06/02 06:31:24;;;;;;;2.58;2.20;;;24.50;39.90;;;;;;5094139;28;20028;-63
2021/06/02 06:33:52;;;;;;;3.67;2.38;;;24.60;40.00;;;;;;5089296;28;20071;-59
2021/06/02 06:36:22;;;;;;;2.58;2.28;;;24.50;40.00;;;;;;5090255;28;20032;-60
2021/06/02 06:39:03;;;;;;;2.50;2.30;;;24.50;40.10;;;;;;5090658;28;20042;-60
2021/06/02 06:41:33;;;;;;;2.65;2.42;;;24.60;40.10;;;;;;5091686;28;20032;-60
2021/06/02 06:44:02;;;;;;;2.75;2.45;;;24.60;40.20;;;;;;5091364;28;20039;-60
2021/06/02 06:46:29;;;;;;;3.28;2.97;;;24.60;40.20;;;;;;5093509;28;20103;-60
2021/06/02 06:48:58;;;;;;;2.70;2.40;;;24.60;40.20;;;;;;5092848;28;20035;-61
2021/06/02 06:51:26;;;;;;;2.95;2.63;;;24.60;40.20;;;;;;5093732;28;20028;-60
2021/06/02 06:53:54;;;;;;;3.15;2.58;;;24.60;40.20;;;;;;5093290;28;20066;-60
2021/06/02 06:56:21;;;;;;;4.22;3.10;;;24.60;40.20;;;;;;5093364;28;20388;-60
2021/06/02 06:58:47;;;;;;;2.80;2.45;;;24.60;40.30;;;;;;5093662;28;20039;-59
2021/06/02 07:01:17;;;;;;;4.10;3.05;;;24.60;40.20;;;;;;5093849;28;20112;-59
2021/06/02 07:03:44;;;;;;;3.90;3.13;;;24.60;40.30;;;;;;5093760;28;20020;-59
2021/06/02 07:06:12;;;;;;;3.45;2.97;;;24.60;40.30;;;;;;5093984;28;20028;-60
2021/06/02 07:08:42;;;;;;;3.25;2.72;;;24.70;40.30;;;;;;5093149;28;20347;-61
2021/06/02 07:11:08;;;;;;;3.95;3.03;;;24.60;40.30;;;;;;5093375;28;20063;-61
2021/06/02 07:13:35;;;;;;;3.05;2.65;;;24.70;40.30;;;;;;5093627;28;20077;-60
2021/06/02 07:16:02;;;;;;;4.32;3.25;;;24.70;40.30;;;;;;5093877;28;20092;-59
2021/06/02 07:18:31;;;;;;;3.55;2.45;;;24.70;40.20;;;;;;5091954;28;20035;-60
2021/06/02 07:20:59;;;;;;;3.55;2.78;;;24.70;40.20;;;;;;5092855;28;20044;-58
2021/06/02 07:23:26;;;;;;;2.58;2.20;;;24.70;40.10;;;;;;5090362;28;20222;-60
2021/06/02 07:25:52;;;;;;;3.05;2.50;;;24.70;40.10;;;;;;5092369;28;20346;-59
2021/06/02 07:28:40;;;;;;;2.95;2.47;;;24.80;40.10;;;;;;5091731;28;20032;-59
2021/06/02 07:31:07;;;;;;;2.78;2.20;;;24.80;40.10;;;;;;5092076;28;20047;-59
2021/06/02 07:33:33;;;;;;;2.90;2.40;;;24.80;40.10;;;;;;5092772;28;20107;-60
2021/06/02 07:35:59;;;;;;;2.38;2.10;;;24.80;40.00;;;;;;5093273;28;20431;-60
2021/06/02 07:38:25;;;;;;;2.90;2.60;;;24.80;40.00;;;;;;5093142;28;20035;-60
2021/06/02 07:40:51;;;;;;;3.25;2.05;;;24.80;40.60;;;;;;5092508;28;20020;-59
2021/06/02 07:43:17;;;;;;;2.90;2.13;;;24.80;39.90;;;;;;5091382;28;20024;-59
2021/06/02 07:45:43;;;;;;;3.05;2.40;;;24.80;39.90;;;;;;5089665;28;20036;-60
2021/06/02 07:48:09;;;;;;;3.13;2.30;;;24.80;39.90;;;;;;5094101;28;20105;-59
2021/06/02 07:50:35;;;;;;;2.10;1.90;;;24.90;39.90;;;;;;5089296;28;20098;-59
2021/06/02 07:53:02;;;;;;;3.08;2.38;;;24.80;39.90;;;;;;5093335;28;20153;-59
2021/06/02 07:55:27;;;;;;;2.40;2.20;;;24.90;39.90;;;;;;5091824;28;20044;-59
2021/06/02 07:57:53;;;;;;;2.50;2.08;;;24.90;39.90;;;;;;5092480;28;20602;-59
2021/06/02 08:00:20;;;;;;;2.55;2.00;;;24.90;39.90;;;;;;5093195;28;20071;-59
2021/06/02 08:02:46;;;;;;;2.70;1.98;;;24.90;39.90;;;;;;5092467;28;20093;-59
2021/06/02 08:05:14;;;;;;;2.28;2.08;;;24.90;40.00;;;;;;5092561;28;20032;-60
2021/06/02 08:07:42;;;;;;;2.47;2.13;;;24.90;40.00;;;;;;5092237;28;20047;-60
2021/06/02 08:10:09;;;;;;;2.13;1.92;;;25.00;40.10;;;;;;5090779;28;20020;-60
2021/06/02 08:12:35;;;;;;;2.55;2.28;;;25.00;40.20;;;;;;5092790;28;20024;-60
2021/06/02 08:15:01;;;;;;;2.03;1.83;;;24.90;40.20;;;;;;5093009;28;20428;-59
2021/06/02 08:17:27;;;;;;;2.42;1.95;;;24.90;40.20;;;;;;5093022;28;20077;-60
2021/06/02 08:19:53;;;;;;;2.33;1.80;;;25.00;40.20;;;;;;5092783;28;20097;-60
2021/06/02 08:22:18;;;;;;;2.72;2.10;;;25.00;40.30;;;;;;5092054;28;20048;-60
2021/06/02 08:24:44;;;;;;;2.03;1.83;;;25.00;40.30;;;;;;5092628;28;20161;-59
2021/06/02 08:27:12;;;;;;;2.35;2.03;;;25.00;40.30;;;;;;5092933;28;20141;-60
2021/06/02 08:29:38;;;;;;;2.03;1.88;;;25.00;40.30;;;;;;5092989;28;20111;-60
2021/06/02 08:32:04;;;;;;;1.80;1.67;;;25.00;40.30;;;;;;5091123;28;20094;-59
2021/06/02 08:34:30;;;;;;;1.98;1.58;;;25.00;40.30;;;;;;5092297;28;20024;-59
2021/06/02 08:36:56;;;;;;;1.85;1.58;;;25.00;40.30;;;;;;5092153;28;20343;-60
2021/06/02 08:39:22;;;;;;;1.80;1.70;;;25.00;40.20;;;;;;5091428;28;20352;-61
2021/06/02 08:41:50;;;;;;;2.08;1.88;;;25.00;40.10;;;;;;5092791;28;20048;-61
2021/06/02 08:44:18;;;;;;;2.20;1.85;;;25.10;40.20;;;;;;5092423;28;20040;-60
2021/06/02 08:46:46;;;;;;;2.22;1.90;;;25.10;40.20;;;;;;5089632;28;20066;-60
2021/06/02 08:49:14;;;;;;;2.08;1.88;;;25.10;40.10;;;;;;5083679;28;20049;-60
2021/06/02 08:51:40;;;;;;;2.42;1.80;;;25.10;40.10;;;;;;5092970;28;20020;-61
2021/06/02 08:54:10;;;;;;;2.72;1.90;;;25.10;40.00;;;;;;5090290;28;20312;-61
2021/06/02 08:56:43;;;;;;;1.70;1.60;;;25.10;40.00;;;;;;5090915;28;20409;-60
2021/06/02 08:59:10;;;;;;;2.67;1.80;;;25.10;39.90;;;;;;5089320;28;20024;-61
2021/06/02 09:01:37;;;;;;;1.88;1.60;;;25.10;39.90;;;;;;5093036;28;20301;-61
2021/06/02 09:04:05;;;;;;;1.80;1.50;;;25.10;39.90;;;;;;5095603;28;20031;-60
2021/06/02 09:06:32;;;;;;;1.70;1.60;;;25.10;39.80;;;;;;5095823;28;20328;-61
2021/06/02 09:09:01;;;;;;;1.63;1.52;;;25.10;39.70;;;;;;5095316;28;20451;-61
2021/06/02 09:11:27;;;;;;;2.17;1.98;;;25.20;39.70;;;;;;5094943;28;20107;-60
2021/06/02 09:13:53;;;;;;;2.13;1.77;;;25.20;39.60;;;;;;5095037;28;20418;-62
2021/06/02 09:16:28;;;;;;;2.78;2.10;;;25.20;39.60;;;;;;5093313;28;20044;-60
2021/06/02 09:19:02;;;;;;;1.95;1.75;;;25.20;39.50;;;;;;5092126;28;20024;-62
2021/06/02 09:21:29;;;;;;;1.83;1.55;;;25.20;39.50;;;;;;5096799;28;20024;-53
2021/06/02 09:23:57;;;;;;;2.13;1.90;;;25.20;39.50;;;;;;5096499;28;20521;-58
2021/06/02 09:26:26;;;;;;;2.20;1.75;;;25.20;39.50;;;;;;5096906;28;20028;-57
2021/06/02 09:29:11;;;;;;;2.63;2.10;;;25.30;39.60;;;;;;5082639;28;20024;-59
2021/06/02 09:31:43;;;;;;;2.85;2.05;;;25.30;39.50;;;;;;5097012;28;20047;-61
2021/06/02 09:34:14;;;;;;;1.95;1.52;;;25.30;39.60;;;;;;5096503;28;20052;-59
2021/06/02 09:36:41;;;;;;;2.13;1.92;;;25.30;39.50;;;;;;5095572;28;20035;-60
2021/06/02 09:39:10;;;;;;;2.65;2.00;;;25.30;39.50;;;;;;5097451;28;20064;-60
2021/06/02 09:42:00;;;;;;;2.30;1.90;;;25.30;39.40;;;;;;5096746;28;20439;-60
2021/06/02 09:44:30;;;;;;;1.70;1.50;;;25.30;39.30;;;;;;5097255;28;20035;-60
2021/06/02 09:46:59;;;;;;;2.45;1.83;;;25.30;39.20;;;;;;5096716;28;20092;-58
2021/06/02 09:49:25;;;;;;;2.05;1.83;;;25.30;39.20;;;;;;5096620;28;20160;-58
2021/06/02 09:51:52;;;;;;;2.50;1.88;;;25.30;39.10;;;;;;5097177;28;20376;-59
2021/06/02 09:54:23;;;;;;;1.80;1.50;;;25.30;39.10;;;;;;5096807;28;20039;-59
2021/06/02 09:56:49;;;;;;;1.95;1.67;;;25.30;39.00;;;;;;5096765;28;20024;-59
2021/06/02 09:59:16;;;;;;;1.80;1.63;;;25.30;39.00;;;;;;5096803;28;20047;-54
2021/06/02 10:02:00;;;;;;;1.80;1.50;;;25.40;39.00;;;;;;5095759;28;20463;-58
2021/06/02 10:04:32;;;;;;;3.05;1.88;;;25.40;39.00;;;;;;5096868;28;20035;-58
2021/06/02 10:06:59;;;;;;;2.13;1.60;;;25.40;39.00;;;;;;5094632;28;20028;-60
2021/06/02 10:09:33;;;;;;;2.20;1.70;;;25.40;38.90;;;;;;5086741;28;20044;-57
2021/06/02 10:12:04;;;;;;;2.45;1.55;;;25.40;38.90;;;;;;5080787;28;20082;-58
2021/06/02 10:14:31;;;;;;;3.25;1.90;;;25.40;38.80;;;;;;5095565;28;20028;-60
2021/06/02 10:16:58;;;;;;;2.22;1.80;;;25.40;38.70;;;;;;5089808;28;20448;-60
2021/06/02 10:19:43;;;;;;;2.05;1.65;;;25.40;38.60;;;;;;5093964;28;20042;-58
2021/06/02 10:22:27;;;;;;;2.75;1.90;;;25.40;38.40;;;;;;5096447;28;20032;-59
2021/06/02 10:24:56;;;;;;;1.30;1.20;;;25.40;38.40;;;;;;5096457;28;20035;-60
2021/06/02 10:27:23;;;;;;;2.42;1.55;;;25.40;38.30;;;;;;5095069;28;20036;-61
2021/06/02 10:29:50;;;;;;;2.28;1.38;;;25.40;38.20;;;;;;5096588;28;20032;-59
2021/06/02 10:32:17;;;;;;;2.20;1.42;;;25.40;38.10;;;;;;5094842;28;20036;-58
2021/06/02 10:34:44;;;;;;;1.63;1.52;;;25.50;38.10;;;;;;5095387;28;20028;-59
2021/06/02 10:37:15;;;;;;;1.63;1.40;;;25.40;37.90;;;;;;5095892;28;20032;-61
2021/06/02 10:39:45;;;;;;;2.65;1.35;;;25.50;37.80;;;;;;5095768;28;20351;-59
2021/06/02 10:42:34;;;;;;;2.00;1.40;;;25.40;37.70;;;;;;5095968;28;20367;-59
2021/06/02 10:45:08;;;;;;;1.90;1.23;;;25.50;37.50;;;;;;5095927;28;20094;-57
2021/06/02 10:47:34;;;;;;;1.95;1.30;;;25.50;37.50;;;;;;5095750;28;20137;-58
2021/06/02 10:50:00;;;;;;;1.58;1.20;;;25.50;37.50;;;;;;5095331;28;20024;-60
2021/06/02 10:52:41;;;;;;;1.40;1.30;;;25.50;37.50;;;;;;5095694;28;20415;-57
2021/06/02 10:55:37;;;;;;;1.42;1.30;;;25.50;37.40;;;;;;5095944;28;20032;-56
2021/06/02 10:58:20;;;;;;;1.30;1.20;;;25.50;37.40;;;;;;5090579;28;20363;-57
2021/06/02 11:00:48;;;;;;;1.30;1.20;;;25.50;37.40;;;;;;5095163;28;20105;-59
2021/06/02 11:03:17;;;;;;;1.45;1.35;;;25.50;37.40;;;;;;5095759;28;20032;-58
2021/06/02 11:05:43;;;;;;;1.70;1.35;;;25.50;37.40;;;;;;5083273;28;20432;-57
2021/06/02 11:08:09;;;;;;;2.75;1.23;;;25.50;37.30;;;;;;5095025;28;20020;-59
2021/06/02 11:10:34;;;;;;;1.30;1.20;;;25.50;37.20;;;;;;5094448;28;20115;-58
2021/06/02 11:13:02;;;;;;;1.30;1.20;;;25.50;37.20;;;;;;5094162;28;20043;-59
2021/06/02 11:15:34;;;;;;;2.42;1.42;;;25.50;37.10;;;;;;5095118;28;20380;-57
2021/06/02 11:18:09;;;;;;;1.15;1.05;;;25.50;37.10;;;;;;5094791;28;20028;-60
2021/06/02 11:20:52;;;;;;;1.42;1.08;;;25.60;37.10;;;;;;5083036;28;20032;-59
2021/06/02 11:23:33;;;;;;;1.73;1.10;;;25.50;36.90;;;;;;5095595;28;20438;-57
2021/06/02 11:26:22;;;;;;;1.40;1.20;;;25.50;36.90;;;;;;5094637;28;20636;-58
2021/06/02 11:28:48;;;;;;;1.25;0.80;;;25.50;36.90;;;;;;5093342;28;20058;-59
2021/06/02 11:31:27;;;;;;;1.23;1.10;;;25.50;36.90;;;;;;5095576;28;20024;-55
2021/06/02 11:34:13;;;;;;;1.17;1.00;;;25.50;36.80;;;;;;5095196;28;20028;-59
2021/06/02 11:37:08;;;;;;;1.42;1.20;;;25.50;36.70;;;;;;5094284;28;20031;-60
2021/06/02 11:39:37;;;;;;;1.40;1.10;;;25.50;36.60;;;;;;5095097;28;20031;-57
2021/06/02 11:42:04;;;;;;;1.35;1.10;;;25.50;36.60;;;;;;5093507;28;20051;-58
2021/06/02 11:44:31;;;;;;;0.95;0.90;;;25.50;36.60;;;;;;5093782;28;20039;-60
2021/06/02 11:46:58;;;;;;;1.25;1.00;;;25.50;36.40;;;;;;5094601;28;20029;-59
2021/06/02 11:49:28;;;;;;;1.27;1.00;;;25.50;36.40;;;;;;5094706;28;20419;-60
2021/06/02 11:51:56;;;;;;;1.00;0.90;;;25.50;36.30;;;;;;5093534;28;20140;-59
2021/06/02 11:54:22;;;;;;;1.17;1.05;;;25.50;36.30;;;;;;5093429;28;20032;-59
2021/06/02 11:56:48;;;;;;;1.30;1.20;;;25.50;36.20;;;;;;5094447;28;20032;-59
2021/06/02 11:59:14;;;;;;;1.08;0.90;;;25.50;36.20;;;;;;5094688;28;20171;-58
2021/06/02 12:01:40;;;;;;;1.02;0.90;;;25.50;36.10;;;;;;5093769;28;20131;-58
2021/06/02 12:04:06;;;;;;;0.90;0.80;;;25.50;36.00;;;;;;5093875;28;20051;-55
2021/06/02 12:06:34;;;;;;;0.93;0.90;;;25.50;36.00;;;;;;5093603;28;20035;-55
2021/06/02 12:09:12;;;;;;;1.13;1.02;;;25.50;35.90;;;;;;5094540;28;20074;-57
2021/06/02 12:11:39;;;;;;;1.17;1.08;;;25.50;35.80;;;;;;5094107;28;20055;-58
2021/06/02 12:14:05;;;;;;;1.08;0.93;;;25.50;35.70;;;;;;5094081;28;20032;-61
2021/06/02 12:16:30;;;;;;;1.17;1.08;;;25.50;35.60;;;;;;5092588;28;20042;-56
2021/06/02 12:19:00;;;;;;;1.02;0.93;;;25.50;35.60;;;;;;5093705;28;20415;-56
2021/06/02 12:21:27;;;;;;;1.10;1.00;;;25.50;35.40;;;;;;5094138;28;20040;-57
2021/06/02 12:23:58;;;;;;;1.20;1.05;;;25.50;35.40;;;;;;5094678;28;20027;-59
2021/06/02 12:26:35;;;;;;;0.95;0.77;;;25.50;35.30;;;;;;5092563;28;20115;-58
2021/06/02 12:29:09;;;;;;;0.82;0.82;;;25.50;35.20;;;;;;5094234;28;20107;-60
2021/06/02 12:31:39;;;;;;;;;;;25.50;35.90;;;;;;5094014;28;20032;-59
2021/06/02 12:34:18;;;;;;;0.80;0.80;;;25.50;35.30;;;;;;5073882;28;20247;-60
2021/06/02 12:36:47;;;;;;;1.52;0.98;;;25.50;35.20;;;;;;5090393;28;20032;-58
2021/06/02 12:39:15;;;;;;;1.63;0.90;;;25.50;35.10;;;;;;5079227;28;20028;-55
2021/06/02 12:41:43;;;;;;;1.02;0.93;;;25.50;34.90;;;;;;5090538;28;20059;-61
2021/06/02 12:44:09;;;;;;;1.10;0.82;;;25.50;35.00;;;;;;5074627;28;20028;-60
2021/06/02 12:46:35;;;;;;;1.10;1.00;;;25.50;35.10;;;;;;5092271;28;20070;-60
2021/06/02 12:49:06;;;;;;;0.73;0.73;;;25.60;35.30;;;;;;5092394;28;20029;-60
2021/06/02 12:51:32;;;;;;;0.80;0.80;;;25.60;35.40;;;;;;5092219;28;20343;-62
2021/06/02 12:53:58;;;;;;;1.10;1.00;;;25.70;35.50;;;;;;5092485;28;20028;-61
2021/06/02 12:56:23;;;;;;;1.10;1.00;;;25.70;35.40;;;;;;5089913;28;20035;-61
2021/06/02 12:58:57;;;;;;;1.63;0.90;;;25.80;35.40;;;;;;5092304;28;20418;-61
2021/06/02 13:01:31;;;;;;;1.30;1.17;;;25.80;35.20;;;;;;5087811;28;20347;-62
2021/06/02 13:03:59;;;;;;;1.23;1.10;;;25.80;35.10;;;;;;5092634;28;20127;-61
2021/06/02 13:06:29;;;;;;;1.27;1.10;;;25.90;35.10;;;;;;5091811;28;20028;-61
2021/06/02 13:08:55;;;;;;;0.90;0.90;;;25.90;34.90;;;;;;5091948;28;20343;-62
2021/06/02 13:11:29;;;;;;;1.08;0.98;;;25.90;34.90;;;;;;5092722;28;20031;-61
2021/06/02 13:13:59;;;;;;;1.00;0.90;;;26.00;34.90;;;;;;5082015;28;20044;-61
2021/06/02 13:16:25;;;;;;;2.42;1.15;;;26.00;34.80;;;;;;5091584;28;20505;-62
2021/06/02 13:19:09;;;;;;;3.47;1.13;;;26.10;34.70;;;;;;5091766;28;20043;-60
2021/06/02 13:21:36;;;;;;;2.00;1.02;;;26.10;34.50;;;;;;5087837;28;20368;-61
2021/06/02 13:24:14;;;;;;;2.05;1.05;;;26.10;34.50;;;;;;5089724;28;20024;-61
2021/06/02 13:27:02;;;;;;;1.35;1.00;;;26.20;34.50;;;;;;5090798;28;20032;-61
2021/06/02 13:29:28;;;;;;;1.80;1.10;;;26.20;34.40;;;;;;5074234;28;20062;-61